Time;durP1;ratioP1;P1;durP2;ratioP2;P2;SDS_P1;SDS_P2;PMS_P1;PMS_P2;Temp;Humidity;BMP_temperature;BMP_pressure;BME280_temperature;BME280_humidity;BME280_pressure;Samples;Min_cycle;Max_cycle;Signal;HPM_P1;HPM_P2
2023/12/02 00:01:14;;;;;;;26.20;8.65;;;0.60;99.90;;;;;;5018879;28;20108;-78
2023/12/02 00:03:39;;;;;;;21.77;7.60;;;0.50;99.90;;;;;;5018582;28;20555;-77
2023/12/02 00:06:05;;;;;;;22.15;8.23;;;0.40;99.90;;;;;;5015550;28;20503;-78
2023/12/02 00:08:31;;;;;;;17.63;7.03;;;0.50;99.90;;;;;;5033399;28;20030;-80
2023/12/02 00:10:57;;;;;;;19.70;7.00;;;0.40;99.90;;;;;;5021432;28;20037;-80
2023/12/02 00:13:23;;;;;;;21.67;7.85;;;0.40;99.90;;;;;;5016212;28;20439;-79
2023/12/02 00:15:49;;;;;;;18.38;7.20;;;0.40;99.90;;;;;;5014302;28;20041;-78
2023/12/02 00:18:15;;;;;;;16.65;6.22;;;0.50;99.90;;;;;;5018097;28;20109;-78
2023/12/02 00:20:41;;;;;;;19.33;6.88;;;0.40;99.90;;;;;;5018495;28;20029;-78
2023/12/02 00:23:06;;;;;;;16.27;6.93;;;0.40;99.90;;;;;;5012453;28;20021;-79
2023/12/02 00:25:32;;;;;;;15.05;6.65;;;0.50;99.90;;;;;;5015994;28;20435;-79
2023/12/02 00:27:58;;;;;;;22.63;7.13;;;0.70;99.90;;;;;;5011643;28;20029;-79
2023/12/02 00:30:24;;;;;;;22.48;7.45;;;0.60;99.90;;;;;;5013984;28;20042;-79
2023/12/02 00:32:49;;;;;;;15.63;6.85;;;0.50;99.90;;;;;;5012944;28;20542;-81
2023/12/02 00:35:15;;;;;;;16.85;7.10;;;0.50;99.90;;;;;;5015135;28;20456;-80
2023/12/02 00:37:41;;;;;;;19.30;6.50;;;0.50;99.90;;;;;;5013268;28;20112;-79
2023/12/02 00:40:08;;;;;;;16.10;6.78;;;0.60;99.90;;;;;;5015115;28;20022;-80
2023/12/02 00:42:34;;;;;;;18.55;7.75;;;0.60;99.90;;;;;;5010999;28;20030;-80
2023/12/02 00:45:00;;;;;;;16.67;6.60;;;0.70;99.90;;;;;;5013107;28;20030;-80
2023/12/02 00:47:26;;;;;;;19.20;7.70;;;0.60;99.90;;;;;;5010550;28;20034;-80
2023/12/02 00:49:51;;;;;;;18.48;7.00;;;0.60;99.90;;;;;;5012170;28;20538;-80
2023/12/02 00:52:17;;;;;;;24.95;8.35;;;0.60;99.90;;;;;;5029687;28;20480;-79
2023/12/02 00:54:44;;;;;;;19.13;6.97;;;0.70;99.90;;;;;;5013400;28;20030;-78
2023/12/02 00:57:10;;;;;;;26.42;8.60;;;0.70;99.90;;;;;;5009312;28;20049;-78
2023/12/02 00:59:37;;;;;;;19.13;7.07;;;0.70;99.90;;;;;;5010762;28;20017;-79
2023/12/02 01:02:02;;;;;;;24.20;7.85;;;0.60;99.90;;;;;;5029615;28;20033;-79
2023/12/02 01:04:31;;;;;;;16.98;6.70;;;0.60;99.90;;;;;;5013491;28;20026;-79
2023/12/02 01:06:57;;;;;;;20.17;7.82;;;0.60;99.90;;;;;;5012198;28;20483;-80
2023/12/02 01:09:22;;;;;;;20.98;8.85;;;0.60;99.90;;;;;;5011992;28;20079;-80
2023/12/02 01:11:48;;;;;;;13.13;6.28;;;0.60;99.90;;;;;;5011424;28;20030;-79
2023/12/02 01:14:14;;;;;;;20.05;7.38;;;0.60;99.90;;;;;;5010457;28;20053;-79
2023/12/02 01:16:39;;;;;;;25.40;8.00;;;0.50;99.90;;;;;;5012648;28;20034;-79
2023/12/02 01:19:05;;;;;;;22.15;7.75;;;0.60;99.90;;;;;;5011732;28;20104;-80
2023/12/02 01:21:31;;;;;;;22.15;7.22;;;0.60;99.90;;;;;;5009571;28;20506;-80
2023/12/02 01:23:57;;;;;;;22.08;8.18;;;0.60;99.90;;;;;;5013042;28;20053;-78
2023/12/02 01:26:23;;;;;;;21.60;7.75;;;0.60;99.90;;;;;;5012446;28;20026;-79
2023/12/02 01:28:49;;;;;;;21.38;7.75;;;0.70;99.90;;;;;;5011720;28;20026;-79
2023/12/02 01:31:15;;;;;;;20.30;8.00;;;0.60;99.90;;;;;;5013152;28;20511;-79
2023/12/02 01:33:40;;;;;;;25.52;7.93;;;0.60;99.90;;;;;;5012953;28;20109;-80
2023/12/02 01:36:11;;;;;;;15.88;6.55;;;0.70;99.90;;;;;;5011780;28;20453;-80
2023/12/02 01:38:36;;;;;;;25.65;8.82;;;0.80;99.90;;;;;;5029622;28;20565;-80
2023/12/02 01:41:02;;;;;;;28.67;8.57;;;0.80;99.90;;;;;;5016533;28;20041;-80
2023/12/02 01:43:28;;;;;;;26.67;9.07;;;0.70;99.90;;;;;;5015455;28;20048;-80
2023/12/02 01:45:55;;;;;;;23.90;7.78;;;0.80;99.90;;;;;;5015462;28;20038;-79
2023/12/02 01:48:24;;;;;;;21.05;8.23;;;0.70;99.90;;;;;;5031679;28;20025;-80
2023/12/02 01:50:50;;;;;;;27.55;9.98;;;0.70;99.90;;;;;;5030886;28;20527;-79
2023/12/02 01:53:18;;;;;;;23.17;7.78;;;0.70;99.90;;;;;;5031769;28;20024;-79
2023/12/02 01:55:44;;;;;;;22.88;9.02;;;0.70;99.90;;;;;;5031365;28;20536;-79
2023/12/02 01:58:10;;;;;;;19.75;8.82;;;0.70;99.90;;;;;;5027490;28;20066;-79
2023/12/02 02:00:37;;;;;;;22.58;8.13;;;0.60;99.90;;;;;;5031650;28;20037;-79
2023/12/02 02:03:03;;;;;;;24.90;8.18;;;0.50;99.90;;;;;;5014341;28;20403;-80
2023/12/02 02:05:29;;;;;;;23.30;8.68;;;0.40;99.90;;;;;;5014369;28;20033;-80
2023/12/02 02:07:54;;;;;;;23.80;8.40;;;0.30;99.90;;;;;;5011116;28;20140;-80
2023/12/02 02:10:21;;;;;;;26.77;8.10;;;0.30;99.90;;;;;;5031498;28;20126;-80
2023/12/02 02:12:47;;;;;;;24.10;8.13;;;0.30;99.90;;;;;;5031408;28;20033;-80
2023/12/02 02:15:13;;;;;;;20.33;7.25;;;0.30;99.90;;;;;;5008155;28;20485;-80
2023/12/02 02:17:38;;;;;;;23.45;8.82;;;0.30;99.90;;;;;;5011268;28;20023;-80
2023/12/02 02:20:05;;;;;;;26.45;8.18;;;0.20;99.90;;;;;;5012427;28;20446;-80
2023/12/02 02:22:31;;;;;;;21.52;7.55;;;0.20;99.90;;;;;;5012066;28;20480;-79
2023/12/02 02:24:56;;;;;;;19.52;7.82;;;0.10;99.90;;;;;;5005952;28;20033;-80
2023/12/02 02:27:22;;;;;;;21.33;9.00;;;0.10;99.90;;;;;;5012210;28;20041;-79
2023/12/02 02:29:48;;;;;;;25.17;8.40;;;0.10;99.90;;;;;;5013501;28;20037;-79
2023/12/02 02:32:13;;;;;;;21.35;8.15;;;0.20;99.90;;;;;;5012417;28;20033;-78
2023/12/02 02:34:42;;;;;;;20.80;7.88;;;0.10;99.90;;;;;;5013142;28;20113;-78
2023/12/02 02:37:09;;;;;;;21.17;8.52;;;0.10;99.90;;;;;;5012205;28;20022;-78
2023/12/02 02:39:34;;;;;;;23.40;8.68;;;0.10;99.90;;;;;;5012003;28;20026;-79
2023/12/02 02:42:06;;;;;;;23.38;8.70;;;0.00;99.90;;;;;;5011919;28;20033;-79
2023/12/02 02:44:38;;;;;;;24.75;9.60;;;0.00;99.90;;;;;;4994865;28;20492;-79
2023/12/02 02:47:04;;;;;;;26.30;9.02;;;0.00;99.90;;;;;;4998002;28;20044;-78
2023/12/02 02:49:30;;;;;;;26.35;9.80;;;-0.10;99.90;;;;;;5013419;28;20026;-80
2023/12/02 02:51:55;;;;;;;25.48;8.90;;;-0.10;99.90;;;;;;5011126;28;20034;-80
2023/12/02 02:54:21;;;;;;;23.90;8.63;;;-0.20;99.90;;;;;;5012383;28;20105;-80
2023/12/02 02:56:47;;;;;;;22.02;8.68;;;-0.20;99.90;;;;;;5011518;28;20025;-78
2023/12/02 02:59:13;;;;;;;22.55;8.48;;;-0.20;99.90;;;;;;5011651;28;20104;-79
2023/12/02 03:01:42;;;;;;;18.98;7.50;;;-0.20;99.90;;;;;;5011650;28;20018;-78
2023/12/02 03:04:08;;;;;;;25.88;8.13;;;-0.20;99.90;;;;;;5013316;28;20066;-79
2023/12/02 03:06:34;;;;;;;25.85;7.22;;;-0.20;99.90;;;;;;5012817;28;20566;-78
2023/12/02 03:08:59;;;;;;;28.95;9.13;;;-0.20;99.90;;;;;;5012826;28;20480;-78
2023/12/02 03:11:25;;;;;;;23.02;7.80;;;-0.20;99.90;;;;;;5011614;28;20320;-79
2023/12/02 03:13:51;;;;;;;26.10;8.40;;;-0.20;99.90;;;;;;5011424;28;20397;-81
2023/12/02 03:16:16;;;;;;;22.35;8.95;;;-0.20;99.90;;;;;;5012980;28;20030;-79
2023/12/02 03:18:42;;;;;;;25.50;9.13;;;-0.20;99.90;;;;;;5012851;28;20495;-78
2023/12/02 03:21:07;;;;;;;22.67;8.15;;;-0.30;99.90;;;;;;5011485;28;20034;-79
2023/12/02 03:23:33;;;;;;;28.58;8.95;;;-0.20;99.90;;;;;;5011644;28;20041;-79
2023/12/02 03:25:59;;;;;;;26.45;8.82;;;-0.20;99.90;;;;;;5011166;28;20432;-79
2023/12/02 03:28:24;;;;;;;22.40;7.90;;;-0.20;99.90;;;;;;5012660;28;20034;-79
2023/12/02 03:30:50;;;;;;;23.08;8.13;;;-0.20;99.90;;;;;;5011612;28;20061;-79
2023/12/02 03:33:16;;;;;;;18.35;6.85;;;-0.20;99.90;;;;;;5011515;28;20041;-78
2023/12/02 03:35:42;;;;;;;20.50;7.82;;;-0.20;99.90;;;;;;5012706;28;20397;-79
2023/12/02 03:38:07;;;;;;;19.67;7.93;;;-0.20;99.90;;;;;;5011586;28;20377;-79
2023/12/02 03:40:33;;;;;;;23.02;7.68;;;-0.20;99.90;;;;;;5011515;28;20038;-79
2023/12/02 03:42:59;;;;;;;20.90;8.05;;;-0.20;99.90;;;;;;5011438;28;20420;-79
2023/12/02 03:45:26;;;;;;;23.50;8.05;;;-0.30;99.90;;;;;;5012582;28;20030;-80
2023/12/02 03:47:51;;;;;;;24.27;8.68;;;-0.30;99.90;;;;;;5011524;28;20026;-79
2023/12/02 03:50:18;;;;;;;22.25;8.88;;;-0.20;99.90;;;;;;5012363;28;20030;-79
2023/12/02 03:52:46;;;;;;;20.80;7.90;;;-0.20;99.90;;;;;;5017630;28;20025;-79
2023/12/02 03:55:13;;;;;;;30.33;8.68;;;-0.30;99.90;;;;;;5017304;28;20480;-79
2023/12/02 03:57:39;;;;;;;17.00;6.97;;;-0.30;99.90;;;;;;5012821;28;20033;-79
2023/12/02 04:00:11;;;;;;;22.50;7.68;;;-0.30;99.90;;;;;;5011842;28;20022;-79
2023/12/02 04:02:40;;;;;;;31.30;9.13;;;-0.20;99.90;;;;;;5012515;28;20117;-79
2023/12/02 04:05:13;;;;;;;24.20;8.52;;;-0.30;99.90;;;;;;5016201;28;20053;-79
2023/12/02 04:07:39;;;;;;;19.85;7.90;;;-0.30;99.90;;;;;;5014973;28;20064;-79
2023/12/02 04:10:06;;;;;;;24.13;8.60;;;-0.40;99.90;;;;;;5014220;28;20054;-79
2023/12/02 04:12:31;;;;;;;23.65;8.55;;;-0.30;99.90;;;;;;5016079;28;20481;-79
2023/12/02 04:14:57;;;;;;;23.88;8.68;;;-0.30;99.90;;;;;;5015722;28;20041;-79
2023/12/02 04:17:23;;;;;;;22.17;7.90;;;-0.40;99.90;;;;;;5015964;28;20034;-79
2023/12/02 04:19:49;;;;;;;23.85;9.02;;;-0.40;99.90;;;;;;5014535;28;20476;-80
2023/12/02 04:22:19;;;;;;;22.52;8.52;;;-0.40;99.90;;;;;;5016077;28;20168;-79
2023/12/02 04:24:46;;;;;;;22.55;7.93;;;-0.40;99.90;;;;;;5014473;28;20037;-80
2023/12/02 04:27:15;;;;;;;22.70;9.03;;;-0.50;99.90;;;;;;5016056;28;20528;-79
2023/12/02 04:29:42;;;;;;;24.63;8.07;;;-0.40;99.90;;;;;;5011465;28;20060;-79
2023/12/02 04:32:08;;;;;;;24.50;8.38;;;-0.40;99.90;;;;;;5014506;28;20515;-79
2023/12/02 04:34:35;;;;;;;25.27;9.38;;;-0.30;99.90;;;;;;5011436;28;20488;-79
2023/12/02 04:37:01;;;;;;;27.05;9.07;;;-0.30;99.90;;;;;;5014948;28;20488;-79
2023/12/02 04:39:27;;;;;;;25.35;8.43;;;-0.30;99.90;;;;;;5019511;28;20037;-80
2023/12/02 04:41:53;;;;;;;31.88;9.38;;;-0.30;99.90;;;;;;5015590;28;20103;-79
2023/12/02 04:44:21;;;;;;;24.33;8.18;;;-0.30;99.90;;;;;;5014330;28;20033;-80
2023/12/02 04:46:47;;;;;;;22.08;7.80;;;-0.20;99.90;;;;;;5015778;28;20072;-79
2023/12/02 04:49:12;;;;;;;25.27;7.85;;;-0.20;99.90;;;;;;5013964;28;20049;-80
2023/12/02 04:51:38;;;;;;;27.60;9.02;;;-0.20;99.90;;;;;;5014112;28;20037;-80
2023/12/02 04:54:04;;;;;;;31.73;8.57;;;-0.20;99.90;;;;;;5019941;28;20234;-80
2023/12/02 04:56:30;;;;;;;26.52;8.02;;;-0.20;99.90;;;;;;5013522;28;20105;-80
2023/12/02 04:58:57;;;;;;;25.88;9.18;;;-0.20;99.90;;;;;;5013859;28;20125;-80
2023/12/02 05:01:23;;;;;;;22.80;8.18;;;-0.20;99.90;;;;;;5013982;28;20030;-80
2023/12/02 05:03:49;;;;;;;28.25;8.77;;;-0.20;99.90;;;;;;5010987;28;20042;-80
2023/12/02 05:06:17;;;;;;;22.58;8.23;;;-0.30;99.90;;;;;;5015180;28;20092;-80
2023/12/02 05:08:44;;;;;;;28.30;10.02;;;-0.20;99.90;;;;;;5011348;28;20038;-80
2023/12/02 05:11:20;;;;;;;25.02;9.30;;;-0.20;99.90;;;;;;5013915;28;20109;-80
2023/12/02 05:13:47;;;;;;;24.75;9.25;;;-0.10;99.90;;;;;;5012756;28;20108;-80
2023/12/02 05:16:14;;;;;;;30.48;9.00;;;-0.10;99.90;;;;;;4997246;28;20040;-80
2023/12/02 05:18:40;;;;;;;25.55;9.88;;;-0.20;99.90;;;;;;5014764;28;20432;-80
2023/12/02 05:21:07;;;;;;;21.83;8.70;;;-0.20;99.90;;;;;;5014769;28;20025;-80
2023/12/02 05:23:33;;;;;;;30.42;9.50;;;-0.30;99.90;;;;;;5014600;28;20092;-80
2023/12/02 05:25:58;;;;;;;26.55;9.63;;;-0.30;99.90;;;;;;5013351;28;20034;-80
2023/12/02 05:28:24;;;;;;;25.95;8.57;;;-0.40;99.90;;;;;;5013630;28;20443;-80
2023/12/02 05:30:50;;;;;;;22.50;9.35;;;-0.50;99.90;;;;;;5014682;28;20441;-78
2023/12/02 05:33:17;;;;;;;26.13;8.57;;;-0.50;99.90;;;;;;5013054;28;20080;-79
2023/12/02 05:35:43;;;;;;;30.52;9.93;;;-0.60;99.90;;;;;;5014400;28;20034;-79
2023/12/02 05:38:08;;;;;;;27.23;9.32;;;-0.50;99.90;;;;;;5013439;28;20041;-79
2023/12/02 05:40:34;;;;;;;26.85;8.93;;;-0.60;99.90;;;;;;5013590;28;20037;-82
2023/12/02 05:43:00;;;;;;;30.63;9.35;;;-0.60;99.90;;;;;;5013737;28;20029;-80
2023/12/02 05:45:25;;;;;;;22.98;8.35;;;-0.70;99.90;;;;;;5007311;28;20066;-80
2023/12/02 05:47:51;;;;;;;23.65;8.80;;;-0.70;99.90;;;;;;5002633;28;20026;-79
2023/12/02 05:50:17;;;;;;;28.92;9.43;;;-0.70;99.90;;;;;;5014023;28;20038;-79
2023/12/02 05:52:43;;;;;;;26.30;10.27;;;-0.70;99.90;;;;;;5019050;28;20462;-79
2023/12/02 05:55:10;;;;;;;26.02;9.73;;;-0.70;99.90;;;;;;5032906;28;20396;-80
2023/12/02 05:57:36;;;;;;;27.73;8.95;;;-0.80;99.90;;;;;;5021301;28;20025;-80
2023/12/02 06:00:01;;;;;;;27.63;9.07;;;-0.70;99.90;;;;;;5014054;28;20109;-80
2023/12/02 06:02:27;;;;;;;26.60;9.68;;;-0.60;99.90;;;;;;5013659;28;20030;-79
2023/12/02 06:04:53;;;;;;;24.05;8.88;;;-0.70;99.90;;;;;;5012156;28;20022;-80
2023/12/02 06:07:18;;;;;;;24.60;9.65;;;-0.60;99.90;;;;;;5012390;28;20030;-79
2023/12/02 06:09:44;;;;;;;25.05;9.10;;;-0.70;99.90;;;;;;5014024;28;20057;-80
2023/12/02 06:12:10;;;;;;;28.80;8.57;;;-0.70;99.90;;;;;;5012532;28;20392;-80
2023/12/02 06:14:35;;;;;;;25.48;9.70;;;-0.70;99.90;;;;;;5012150;28;20520;-80
2023/12/02 06:17:03;;;;;;;32.58;8.65;;;-0.70;99.90;;;;;;5010480;28;20088;-80
2023/12/02 06:19:28;;;;;;;27.00;9.05;;;-0.60;99.90;;;;;;5012495;28;20400;-80
2023/12/02 06:21:54;;;;;;;21.80;8.63;;;-0.60;99.90;;;;;;5000070;28;20030;-80
2023/12/02 06:24:20;;;;;;;22.33;9.23;;;-0.60;99.90;;;;;;5013673;28;20038;-80
2023/12/02 06:26:45;;;;;;;38.90;10.30;;;-0.50;99.90;;;;;;5012270;28;20502;-81
2023/12/02 06:29:11;;;;;;;31.90;9.18;;;-0.50;99.90;;;;;;5013532;28;20064;-80
2023/12/02 06:31:37;;;;;;;26.23;9.18;;;-0.50;99.90;;;;;;5011413;28;20030;-80
2023/12/02 06:34:04;;;;;;;27.60;9.85;;;-0.50;99.90;;;;;;5013310;28;20044;-80
2023/12/02 06:36:30;;;;;;;22.08;9.23;;;-0.60;99.90;;;;;;5012035;28;20594;-80
2023/12/02 06:38:57;;;;;;;24.95;8.70;;;-0.50;99.90;;;;;;5013571;28;20018;-80
2023/12/02 06:41:23;;;;;;;28.88;9.00;;;-0.50;99.90;;;;;;5012227;28;20022;-80
2023/12/02 06:44:12;;;;;;;28.73;9.63;;;-0.50;99.90;;;;;;5011397;28;20121;-81
2023/12/02 06:46:38;;;;;;;21.80;8.00;;;-0.40;99.90;;;;;;5011723;28;20462;-80
2023/12/02 06:49:04;;;;;;;25.95;8.98;;;-0.40;99.90;;;;;;5013320;28;20176;-80
2023/12/02 06:51:29;;;;;;;30.13;9.73;;;-0.50;99.90;;;;;;5012783;28;20032;-80
2023/12/02 06:53:58;;;;;;;24.80;7.97;;;-0.60;99.90;;;;;;5012938;28;20026;-82
2023/12/02 06:56:25;;;;;;;26.05;9.88;;;-0.60;99.90;;;;;;5013141;28;20033;-81
2023/12/02 06:58:52;;;;;;;27.20;10.00;;;-0.50;99.90;;;;;;5011990;28;20022;-82
2023/12/02 07:01:24;;;;;;;25.25;8.93;;;-0.50;99.90;;;;;;5010963;28;20449;-80
2023/12/02 07:03:50;;;;;;;29.80;9.77;;;-0.50;99.90;;;;;;4992415;28;20038;-80
2023/12/02 07:06:15;;;;;;;30.65;9.38;;;-0.50;99.90;;;;;;5003298;28;20120;-81
2023/12/02 07:08:41;;;;;;;30.77;9.45;;;-0.50;99.90;;;;;;5013175;28;20041;-81
2023/12/02 07:11:08;;;;;;;31.10;9.25;;;-0.40;99.90;;;;;;5011622;28;20034;-82
2023/12/02 07:13:34;;;;;;;26.77;9.18;;;-0.30;99.90;;;;;;5000387;28;20025;-81
2023/12/02 07:15:59;;;;;;;23.10;8.85;;;-0.30;99.90;;;;;;5012880;28;20513;-80
2023/12/02 07:18:25;;;;;;;28.67;9.35;;;-0.30;99.90;;;;;;5011603;28;20491;-80
2023/12/02 07:20:51;;;;;;;25.27;9.48;;;-0.40;99.90;;;;;;5012493;28;20034;-81
2023/12/02 07:23:17;;;;;;;32.95;10.80;;;-0.40;99.90;;;;;;5012649;28;20030;-81
2023/12/02 07:25:42;;;;;;;20.60;8.57;;;-0.40;99.90;;;;;;5012008;28;20105;-81
2023/12/02 07:28:08;;;;;;;27.67;8.75;;;-0.40;99.90;;;;;;5011725;28;20121;-81
2023/12/02 07:30:34;;;;;;;25.48;10.00;;;-0.40;99.90;;;;;;5012321;28;20120;-81
2023/12/02 07:32:59;;;;;;;26.35;10.15;;;-0.50;99.90;;;;;;5009918;28;20560;-81
2023/12/02 07:35:25;;;;;;;27.50;9.38;;;-0.50;99.90;;;;;;5010547;28;20054;-81
2023/12/02 07:37:51;;;;;;;31.65;9.75;;;-0.50;99.90;;;;;;5002873;28;20033;-81
2023/12/02 07:40:16;;;;;;;29.23;10.20;;;-0.60;99.90;;;;;;5016406;28;20018;-81
2023/12/02 07:42:42;;;;;;;29.33;8.73;;;-0.50;99.90;;;;;;5015293;28;20117;-81
2023/12/02 07:45:08;;;;;;;29.85;9.65;;;-0.50;99.90;;;;;;5016909;28;20424;-81
2023/12/02 07:47:34;;;;;;;27.58;9.70;;;-0.50;99.90;;;;;;5015079;28;20064;-80
2023/12/02 07:49:59;;;;;;;38.13;13.65;;;-0.60;99.90;;;;;;5016224;28;20455;-82
2023/12/02 07:52:25;;;;;;;30.83;10.43;;;-0.60;99.90;;;;;;5015618;28;20476;-81
2023/12/02 07:54:51;;;;;;;30.75;9.40;;;-0.50;99.90;;;;;;5015339;28;20048;-80
2023/12/02 07:57:16;;;;;;;26.05;9.32;;;-0.60;99.90;;;;;;5015374;28;20489;-81
2023/12/02 07:59:42;;;;;;;27.30;8.93;;;-0.50;99.90;;;;;;5014936;28;20026;-81
2023/12/02 08:02:08;;;;;;;29.05;10.15;;;-0.50;99.90;;;;;;5015818;28;20038;-80
2023/12/02 08:04:33;;;;;;;24.83;9.70;;;-0.50;99.90;;;;;;5016304;28;20400;-80
2023/12/02 08:06:59;;;;;;;28.45;9.68;;;-0.40;99.90;;;;;;5014827;28;20037;-81
2023/12/02 08:09:26;;;;;;;33.47;11.55;;;-0.40;99.90;;;;;;5008308;28;20033;-80
2023/12/02 08:11:51;;;;;;;31.05;10.90;;;-0.40;99.90;;;;;;5007182;28;20030;-81
2023/12/02 08:14:17;;;;;;;31.15;9.30;;;-0.40;99.90;;;;;;5015956;28;20030;-80
2023/12/02 08:16:43;;;;;;;25.20;8.80;;;-0.30;99.90;;;;;;5010245;28;20176;-82
2023/12/02 08:19:09;;;;;;;33.70;10.75;;;-0.20;99.90;;;;;;5007032;28;20033;-80
2023/12/02 08:21:34;;;;;;;31.48;11.20;;;-0.20;99.90;;;;;;5004944;28;20455;-81
2023/12/02 08:24:00;;;;;;;29.85;9.63;;;-0.20;99.90;;;;;;5016034;28;20033;-80
2023/12/02 08:26:26;;;;;;;25.40;9.60;;;-0.20;99.90;;;;;;5015084;28;20018;-81
2023/12/02 08:28:51;;;;;;;26.55;9.38;;;-0.10;99.90;;;;;;5016087;28;20030;-81
2023/12/02 08:31:17;;;;;;;28.05;9.60;;;-0.10;99.90;;;;;;5009293;28;20430;-81
2023/12/02 08:33:43;;;;;;;28.17;10.43;;;-0.10;99.90;;;;;;5004581;28;20060;-81
2023/12/02 08:36:09;;;;;;;27.23;9.50;;;0.00;99.90;;;;;;5015895;28;20022;-81
2023/12/02 08:38:34;;;;;;;32.13;9.70;;;0.10;99.90;;;;;;5014297;28;20491;-81
2023/12/02 08:41:00;;;;;;;33.45;9.80;;;0.20;99.90;;;;;;5015898;28;20022;-81
2023/12/02 08:43:44;;;;;;;34.20;10.40;;;0.30;99.90;;;;;;5015589;28;20037;-81
2023/12/02 08:46:17;;;;;;;29.48;10.55;;;0.30;99.90;;;;;;5014348;28;20468;-80
2023/12/02 08:48:43;;;;;;;29.92;9.98;;;0.40;99.90;;;;;;5013094;28;20530;-81
2023/12/02 08:51:10;;;;;;;28.00;9.68;;;0.40;99.90;;;;;;5014904;28;20056;-81
2023/12/02 08:53:36;;;;;;;30.63;10.07;;;0.30;99.90;;;;;;5014783;28;20480;-82
2023/12/02 08:56:02;;;;;;;30.55;9.13;;;0.30;99.90;;;;;;5013807;28;20022;-80
2023/12/02 08:58:32;;;;;;;26.85;9.23;;;0.30;99.90;;;;;;5012974;28;20038;-82
2023/12/02 09:00:58;;;;;;;28.48;10.65;;;0.40;99.90;;;;;;5010946;28;20068;-82
2023/12/02 09:03:24;;;;;;;32.10;11.20;;;0.50;99.90;;;;;;5014673;28;20061;-81
2023/12/02 09:05:55;;;;;;;30.15;10.48;;;0.50;99.90;;;;;;5012522;28;20037;-81
2023/12/02 09:08:21;;;;;;;36.85;11.60;;;0.60;99.90;;;;;;5013800;28;20476;-82
2023/12/02 09:10:47;;;;;;;32.45;11.10;;;0.60;99.90;;;;;;5014903;28;20038;-81
2023/12/02 09:13:35;;;;;;;36.33;11.27;;;0.60;99.90;;;;;;5012495;28;20030;-80
2023/12/02 09:16:00;;;;;;;28.98;10.93;;;0.60;99.90;;;;;;5014731;28;20408;-81
2023/12/02 09:18:36;;;;;;;31.60;10.90;;;0.70;99.90;;;;;;5014980;28;20094;-81
2023/12/02 09:21:03;;;;;;;26.80;10.43;;;0.80;99.90;;;;;;5014834;28;20029;-81
2023/12/02 09:23:29;;;;;;;35.50;11.40;;;0.90;99.90;;;;;;5013926;28;20399;-81
2023/12/02 09:25:59;;;;;;;30.58;9.98;;;1.00;99.90;;;;;;5012838;28;20034;-82
2023/12/02 09:28:27;;;;;;;28.58;9.70;;;1.10;99.90;;;;;;5015138;28;20026;-81
2023/12/02 09:30:57;;;;;;;33.35;11.13;;;1.20;99.90;;;;;;5010140;28;20076;-82
2023/12/02 09:33:25;;;;;;;26.90;10.15;;;1.20;99.90;;;;;;5008168;28;20492;-81
2023/12/02 09:36:02;;;;;;;32.10;10.32;;;1.20;99.90;;;;;;5011994;28;20108;-81
2023/12/02 09:38:28;;;;;;;30.40;10.70;;;1.20;99.90;;;;;;5029408;28;20030;-82
2023/12/02 09:41:17;;;;;;;33.70;12.10;;;1.30;99.90;;;;;;5013457;28;20444;-83
2023/12/02 09:43:59;;;;;;;30.75;10.50;;;1.30;99.90;;;;;;4993803;28;20038;-82
2023/12/02 09:46:37;;;;;;;31.23;10.48;;;1.50;99.90;;;;;;5005145;28;20042;-81
2023/12/02 09:49:17;;;;;;;31.90;10.70;;;1.60;99.90;;;;;;5014540;28;20038;-81
2023/12/02 09:52:36;;;;;;;37.03;11.45;;;1.60;99.90;;;;;;5013765;28;20399;-81
2023/12/02 09:55:08;;;;;;;28.52;9.95;;;1.70;99.90;;;;;;5001754;28;20443;-82
2023/12/02 09:58:00;;;;;;;28.20;10.25;;;1.70;99.90;;;;;;5014166;28;20507;-82
2023/12/02 10:00:54;;;;;;;29.85;10.48;;;1.70;99.90;;;;;;4997476;28;20492;-80
2023/12/02 10:03:46;;;;;;;28.80;10.27;;;1.80;99.90;;;;;;5012086;28;20369;-81
2023/12/02 10:06:42;;;;;;;37.00;9.48;;;1.90;99.90;;;;;;5012791;28;20424;-81
2023/12/02 10:09:29;;;;;;;32.00;10.77;;;1.80;99.90;;;;;;5012916;28;20117;-81
2023/12/02 10:12:15;;;;;;;31.23;10.80;;;1.80;99.90;;;;;;5013292;28;20029;-82
2023/12/02 10:14:41;;;;;;;26.30;9.57;;;1.80;99.90;;;;;;5007535;28;20045;-80
2023/12/02 10:17:11;;;;;;;36.22;11.52;;;1.80;99.90;;;;;;5012324;28;20022;-80
2023/12/02 10:19:43;;;;;;;32.00;9.73;;;1.80;99.90;;;;;;5012464;28;20036;-82
2023/12/02 10:22:10;;;;;;;27.35;10.75;;;1.80;99.90;;;;;;5010379;28;20026;-80
2023/12/02 10:24:58;;;;;;;35.08;12.48;;;2.00;99.90;;;;;;5009922;28;20492;-80
2023/12/02 10:27:24;;;;;;;;;;;2.00;99.90;;;;;;5004962;28;20034;-80
2023/12/02 10:29:58;;;;;;;33.28;10.65;;;2.10;99.90;;;;;;5013498;28;19909;-79
2023/12/02 10:32:36;;;;;;;34.88;10.65;;;2.10;99.90;;;;;;5011961;28;20033;-79
2023/12/02 10:35:14;;;;;;;32.58;10.55;;;2.20;99.90;;;;;;4994112;28;20496;-80
2023/12/02 10:37:43;;;;;;;32.17;11.07;;;2.20;99.90;;;;;;5000543;28;20025;-81
2023/12/02 10:40:14;;;;;;;33.03;11.38;;;2.30;99.90;;;;;;5012243;28;20088;-79
2023/12/02 10:43:05;;;;;;;30.08;10.30;;;2.30;99.90;;;;;;5013234;28;20110;-81
2023/12/02 10:45:33;;;;;;;36.88;11.77;;;2.40;99.90;;;;;;5012489;28;20081;-79
2023/12/02 10:48:00;;;;;;;30.25;9.68;;;2.40;99.90;;;;;;5013242;28;20125;-79
2023/12/02 10:50:28;;;;;;;27.92;10.95;;;2.50;99.90;;;;;;5013211;28;20034;-79
2023/12/02 10:53:13;;;;;;;29.40;11.30;;;2.50;99.90;;;;;;5013022;28;20042;-79
2023/12/02 10:55:45;;;;;;;30.80;10.93;;;2.60;99.90;;;;;;5011903;28;20048;-79
2023/12/02 10:58:12;;;;;;;30.15;11.27;;;2.50;99.90;;;;;;5011599;28;20503;-80
2023/12/02 11:00:40;;;;;;;26.90;11.20;;;2.50;99.90;;;;;;5004958;28;20037;-80
2023/12/02 11:03:10;;;;;;;30.63;11.25;;;2.50;99.90;;;;;;5007456;28;20448;-80
2023/12/02 11:05:45;;;;;;;36.40;11.90;;;2.60;99.90;;;;;;5011419;28;20477;-80
2023/12/02 11:08:40;;;;;;;30.20;10.88;;;2.60;99.90;;;;;;5012954;28;20029;-80
2023/12/02 11:11:11;;;;;;;29.20;10.00;;;2.60;99.90;;;;;;5010413;28;20022;-79
2023/12/02 11:13:37;;;;;;;29.10;10.68;;;2.50;99.90;;;;;;5011092;28;20041;-80
2023/12/02 11:16:32;;;;;;;30.77;11.05;;;2.40;99.90;;;;;;5011792;28;20042;-79
2023/12/02 11:18:57;;;;;;;36.20;10.32;;;2.30;99.90;;;;;;4991532;28;20042;-79
2023/12/02 11:21:31;;;;;;;31.50;11.30;;;2.30;99.90;;;;;;5008309;28;20034;-80
2023/12/02 11:24:18;;;;;;;35.00;11.23;;;2.30;99.90;;;;;;4992081;28;20397;-80
2023/12/02 11:26:53;;;;;;;30.52;11.00;;;2.40;99.90;;;;;;5012514;28;20026;-79
2023/12/02 11:29:43;;;;;;;27.92;10.88;;;2.50;99.90;;;;;;5011576;28;20133;-79
2023/12/02 11:32:21;;;;;;;39.63;12.40;;;2.50;99.90;;;;;;5011271;28;20127;-79
2023/12/02 11:35:13;;;;;;;36.13;12.43;;;2.50;99.90;;;;;;5011545;28;20037;-79
2023/12/02 11:37:42;;;;;;;33.15;11.32;;;2.40;99.90;;;;;;4999932;28;20536;-79
2023/12/02 11:40:22;;;;;;;34.38;11.90;;;2.40;99.90;;;;;;5011117;28;20038;-80
2023/12/02 11:43:16;;;;;;;32.15;11.02;;;2.50;99.90;;;;;;5011196;28;20022;-80
2023/12/02 11:45:49;;;;;;;38.33;12.27;;;2.50;99.90;;;;;;5027149;28;20026;-80
2023/12/02 11:48:45;;;;;;;41.47;12.52;;;2.50;99.90;;;;;;5009223;28;20460;-80
2023/12/02 11:51:52;;;;;;;34.97;11.98;;;2.50;99.90;;;;;;5012632;28;20112;-80
2023/12/02 11:54:57;;;;;;;30.73;10.88;;;2.60;99.90;;;;;;5000236;28;20018;-80
2023/12/02 11:57:46;;;;;;;34.03;12.10;;;2.70;99.90;;;;;;5005393;28;20045;-81
2023/12/02 12:00:24;;;;;;;31.65;11.18;;;2.90;99.90;;;;;;4991032;28;20063;-80
2023/12/02 12:03:34;;;;;;;32.53;10.77;;;3.00;99.90;;;;;;5011592;28;20628;-80
2023/12/02 12:06:03;;;;;;;32.38;11.15;;;3.20;99.90;;;;;;4973947;28;20034;-81
2023/12/02 12:08:37;;;;;;;38.72;12.40;;;3.30;99.90;;;;;;4974393;28;20424;-80
2023/12/02 12:11:05;;;;;;;37.40;11.05;;;3.30;99.90;;;;;;4990369;28;20065;-80
2023/12/02 12:13:32;;;;;;;29.10;11.23;;;3.30;99.90;;;;;;4989974;28;20023;-80
2023/12/02 12:15:58;;;;;;;29.75;10.68;;;3.30;99.90;;;;;;4990516;28;20086;-80
2023/12/02 12:18:24;;;;;;;31.30;10.80;;;3.40;99.90;;;;;;5025812;28;20526;-79
2023/12/02 12:20:55;;;;;;;30.50;11.18;;;3.40;99.90;;;;;;5012192;28;20042;-80
2023/12/02 12:23:28;;;;;;;34.03;11.20;;;3.50;99.90;;;;;;5027596;28;20041;-81
2023/12/02 12:25:54;;;;;;;31.80;10.68;;;3.50;99.90;;;;;;5030210;28;20030;-79
2023/12/02 12:28:19;;;;;;;31.35;11.00;;;3.50;99.90;;;;;;5010275;28;20034;-79
2023/12/02 12:30:46;;;;;;;32.03;11.27;;;3.50;99.90;;;;;;5015632;28;20037;-79
2023/12/02 12:33:13;;;;;;;42.83;13.05;;;3.50;99.90;;;;;;5014502;28;20073;-80
2023/12/02 12:35:39;;;;;;;33.95;10.65;;;3.50;99.90;;;;;;5013649;28;20034;-79
2023/12/02 12:38:07;;;;;;;41.35;12.93;;;3.60;99.90;;;;;;5014436;28;20034;-79
2023/12/02 12:40:35;;;;;;;;;;;3.70;99.90;;;;;;5014430;28;20064;-80
2023/12/02 12:43:01;;;;;;;;;;;3.80;99.90;;;;;;5016141;28;20268;-79
2023/12/02 12:45:27;;;;;;;33.40;11.35;;;3.90;99.90;;;;;;5015676;28;20004;-79
2023/12/02 12:47:54;;;;;;;31.88;11.73;;;3.90;99.90;;;;;;5013590;28;20120;-79
2023/12/02 12:50:22;;;;;;;46.38;13.05;;;3.90;99.90;;;;;;5013611;28;20427;-80